Time;durP1;ratioP1;P1;durP2;ratioP2;P2;SDS_P1;SDS_P2;PMS_P1;PMS_P2;Temp;Humidity;BMP_temperature;BMP_pressure;BME280_temperature;BME280_humidity;BME280_pressure;Samples;Min_cycle;Max_cycle;Signal;HPM_P1;HPM_P2
2023/05/16 00:01:43;;;;;;;11.05;2.40;;;;;;;9.49;100.00;101702.88;5052671;28;20041;-50
2023/05/16 00:04:11;;;;;;;16.40;2.75;;;;;;;9.48;100.00;101703.78;5052119;28;20515;-49
2023/05/16 00:06:39;;;;;;;13.68;2.67;;;;;;;9.33;100.00;101705.34;5052395;28;20055;-50
2023/05/16 00:09:08;;;;;;;15.50;2.20;;;;;;;9.32;100.00;101706.25;5052918;28;20049;-51
2023/05/16 00:11:36;;;;;;;13.15;2.80;;;;;;;9.25;100.00;101708.31;5052799;28;20122;-51
2023/05/16 00:14:04;;;;;;;11.55;2.33;;;;;;;9.26;100.00;101706.56;5052121;28;20069;-52
2023/05/16 00:16:35;;;;;;;11.95;2.53;;;;;;;9.32;100.00;101708.06;5052300;28;20044;-50
2023/05/16 00:19:04;;;;;;;12.10;2.55;;;;;;;9.36;100.00;101707.00;5052449;28;20049;-49
2023/05/16 00:21:32;;;;;;;12.10;2.00;;;;;;;9.39;100.00;101710.31;5051753;28;20073;-48
2023/05/16 00:24:00;;;;;;;12.48;2.03;;;;;;;9.41;100.00;101705.00;5052616;28;20508;-49
2023/05/16 00:26:28;;;;;;;13.20;2.17;;;;;;;9.37;100.00;101708.69;5052752;28;20467;-48
2023/05/16 00:28:56;;;;;;;19.15;2.40;;;;;;;9.31;100.00;101712.44;5051910;28;20045;-48
2023/05/16 00:31:24;;;;;;;13.52;2.40;;;;;;;9.31;100.00;101715.06;5051811;28;20045;-45
2023/05/16 00:33:54;;;;;;;15.73;2.15;;;;;;;9.41;100.00;101711.09;5052112;28;20435;-46
2023/05/16 00:36:23;;;;;;;17.75;2.58;;;;;;;9.39;100.00;101707.69;5050886;28;20045;-50
2023/05/16 00:38:51;;;;;;;11.45;2.15;;;;;;;9.41;100.00;101715.50;5052262;28;20052;-47
2023/05/16 00:41:20;;;;;;;10.13;2.88;;;;;;;9.21;100.00;101721.66;5052065;28;20068;-49
2023/05/16 00:43:48;;;;;;;12.82;2.00;;;;;;;9.17;100.00;101722.72;5051683;28;20040;-50
2023/05/16 00:46:16;;;;;;;11.50;2.25;;;;;;;9.12;100.00;101723.78;5052800;28;20053;-58
2023/05/16 00:48:45;;;;;;;10.20;2.30;;;;;;;9.24;100.00;101719.75;5054194;28;20557;-57
2023/05/16 00:51:15;;;;;;;12.98;2.00;;;;;;;9.12;100.00;101729.03;5054142;28;20522;-58
2023/05/16 00:53:43;;;;;;;13.00;2.65;;;;;;;9.03;100.00;101723.34;5053919;28;20439;-58
2023/05/16 00:56:14;;;;;;;12.35;1.88;;;;;;;8.96;100.00;101728.84;5053697;28;20036;-58
2023/05/16 00:58:43;;;;;;;14.93;2.67;;;;;;;8.96;100.00;101718.38;5053969;28;20045;-58
2023/05/16 01:01:11;;;;;;;12.82;1.90;;;;;;;9.05;100.00;101722.38;5054298;28;20057;-58
2023/05/16 01:03:39;;;;;;;14.90;1.95;;;;;;;8.98;100.00;101725.31;5054255;28;20387;-58
2023/05/16 01:06:08;;;;;;;13.23;2.40;;;;;;;8.83;100.00;101724.22;5036138;28;20459;-59
2023/05/16 01:08:37;;;;;;;12.73;1.60;;;;;;;8.74;100.00;101728.97;5054155;28;20499;-59
2023/05/16 01:11:17;;;;;;;9.60;1.63;;;;;;;8.65;100.00;101731.97;5053800;28;20077;-59
2023/05/16 01:13:55;;;;;;;10.55;1.80;;;;;;;8.61;100.00;101733.84;5053945;28;20484;-58
2023/05/16 01:16:30;;;;;;;11.73;2.03;;;;;;;8.57;100.00;101737.53;5054086;28;20492;-58
2023/05/16 01:19:10;;;;;;;14.48;2.25;;;;;;;8.51;100.00;101736.94;5054039;28;20128;-58
2023/05/16 01:21:44;;;;;;;9.52;2.13;;;;;;;8.55;100.00;101733.25;5036297;28;20060;-58
2023/05/16 01:24:23;;;;;;;13.70;2.03;;;;;;;8.54;100.00;101736.81;5054228;28;20105;-58
2023/05/16 01:26:53;;;;;;;17.88;1.88;;;;;;;8.58;100.00;101736.63;5054185;28;20055;-58
2023/05/16 01:29:21;;;;;;;12.18;2.10;;;;;;;8.56;100.00;101738.47;5053935;28;20476;-58
2023/05/16 01:31:49;;;;;;;13.07;1.70;;;;;;;8.41;100.00;101733.81;5053363;28;20044;-59
2023/05/16 01:34:18;;;;;;;9.35;1.70;;;;;;;8.39;100.00;101738.28;5053541;28;20079;-57
2023/05/16 01:36:52;;;;;;;11.07;1.60;;;;;;;8.42;100.00;101730.28;5053654;28;20047;-58
2023/05/16 01:39:27;;;;;;;13.13;2.38;;;;;;;8.32;100.00;101734.19;5053506;28;20064;-58
2023/05/16 01:42:03;;;;;;;9.82;2.42;;;;;;;8.28;100.00;101736.94;5053593;28;20103;-58
2023/05/16 01:44:35;;;;;;;12.07;2.08;;;;;;;8.28;100.00;101730.88;5053224;28;20126;-58
2023/05/16 01:47:09;;;;;;;16.83;2.35;;;;;;;8.26;100.00;101732.69;5053418;28;20052;-59
2023/05/16 01:49:44;;;;;;;12.95;2.22;;;;;;;8.18;100.00;101734.78;5052839;28;20568;-58
2023/05/16 01:52:19;;;;;;;11.00;2.25;;;;;;;8.11;100.00;101734.16;5053216;28;20053;-58
2023/05/16 01:54:48;;;;;;;10.95;1.90;;;;;;;8.13;100.00;101734.97;5050048;28;20163;-52
2023/05/16 01:57:21;;;;;;;11.00;1.90;;;;;;;8.07;100.00;101729.97;5051383;28;20079;-57
2023/05/16 01:59:50;;;;;;;10.07;1.95;;;;;;;8.06;100.00;101730.91;5052617;28;20041;-57
2023/05/16 02:02:18;;;;;;;8.93;1.60;;;;;;;8.06;100.00;101730.91;5052318;28;20048;-59
2023/05/16 02:04:47;;;;;;;14.45;1.80;;;;;;;8.04;100.00;101735.34;5051740;28;20467;-58
2023/05/16 02:07:15;;;;;;;12.02;2.03;;;;;;;8.01;100.00;101728.44;5053198;28;20095;-59
2023/05/16 02:09:43;;;;;;;10.57;1.50;;;;;;;7.98;100.00;101739.06;5053035;28;20082;-59
2023/05/16 02:12:11;;;;;;;12.82;2.28;;;;;;;7.89;100.00;101732.41;5052162;28;20057;-50
2023/05/16 02:14:41;;;;;;;12.75;2.22;;;;;;;7.88;100.00;101735.09;5052041;28;20512;-59
2023/05/16 02:17:09;;;;;;;8.18;1.65;;;;;;;7.93;100.00;101728.78;5032627;28;20064;-48
2023/05/16 02:19:37;;;;;;;18.00;2.45;;;;;;;7.91;100.00;101735.00;5049388;28;20049;-50
2023/05/16 02:22:05;;;;;;;11.18;2.05;;;;;;;7.80;100.00;101743.25;5032482;28;20057;-47
2023/05/16 02:24:34;;;;;;;12.45;1.65;;;;;;;7.84;100.00;101737.00;5049743;28;20044;-52
2023/05/16 02:27:02;;;;;;;13.52;1.65;;;;;;;7.87;100.00;101749.13;5050558;28;20449;-50
2023/05/16 02:29:30;;;;;;;13.40;2.10;;;;;;;7.78;100.00;101751.19;5049265;28;20052;-49
2023/05/16 02:32:00;;;;;;;15.32;2.13;;;;;;;7.77;100.00;101746.84;5049993;28;20065;-47
2023/05/16 02:34:28;;;;;;;14.50;2.15;;;;;;;7.75;100.00;101746.03;5048822;28;20048;-54
2023/05/16 02:36:56;;;;;;;10.77;1.80;;;;;;;7.73;100.00;101753.13;5050190;28;20527;-48
2023/05/16 02:39:24;;;;;;;12.80;2.17;;;;;;;7.70;100.00;101761.09;5050160;28;20044;-58
2023/05/16 02:41:52;;;;;;;14.80;2.30;;;;;;;7.71;100.00;101756.72;5034546;28;20492;-59
2023/05/16 02:44:22;;;;;;;13.40;2.00;;;;;;;7.71;100.00;101762.78;5052183;28;20114;-58
2023/05/16 02:46:50;;;;;;;11.80;2.15;;;;;;;7.69;100.00;101766.38;5052096;28;20053;-58
2023/05/16 02:49:19;;;;;;;13.10;1.70;;;;;;;7.60;100.00;101763.19;5051914;28;20500;-58
2023/05/16 02:51:48;;;;;;;10.82;1.73;;;;;;;7.62;100.00;101771.00;5051763;28;20077;-58
2023/05/16 02:54:16;;;;;;;12.02;2.33;;;;;;;7.63;100.00;101764.00;5034068;28;20546;-58
2023/05/16 02:56:45;;;;;;;12.80;1.83;;;;;;;7.66;100.00;101771.72;5052081;28;20052;-59
2023/05/16 02:59:13;;;;;;;12.32;1.67;;;;;;;7.61;100.00;101771.91;5034140;28;20145;-58
2023/05/16 03:01:41;;;;;;;12.57;1.75;;;;;;;7.56;100.00;101774.69;5052203;28;20049;-58
2023/05/16 03:04:09;;;;;;;13.30;1.70;;;;;;;7.47;100.00;101776.81;5052660;28;20049;-59
2023/05/16 03:06:39;;;;;;;9.82;1.60;;;;;;;7.47;100.00;101776.81;5051970;28;20457;-58
2023/05/16 03:09:10;;;;;;;12.65;2.30;;;;;;;7.38;100.00;101778.84;5052111;28;20719;-58
2023/05/16 03:11:38;;;;;;;8.90;1.63;;;;;;;7.34;100.00;101781.66;5051794;28;20045;-58
2023/05/16 03:14:07;;;;;;;9.13;1.95;;;;;;;7.35;100.00;101778.09;5034359;28;20049;-58
2023/05/16 03:16:37;;;;;;;12.77;2.22;;;;;;;7.23;100.00;101782.03;5051964;28;20041;-58
2023/05/16 03:19:06;;;;;;;12.00;1.95;;;;;;;7.13;100.00;101791.13;5052507;28;20406;-59
2023/05/16 03:21:34;;;;;;;9.50;1.70;;;;;;;7.14;100.00;101785.81;5051877;28;20076;-59
2023/05/16 03:24:04;;;;;;;14.70;2.28;;;;;;;7.11;100.00;101786.78;5051617;28;20056;-58
2023/05/16 03:26:32;;;;;;;11.73;1.67;;;;;;;7.15;100.00;101791.94;5052012;28;20052;-58
2023/05/16 03:29:00;;;;;;;14.93;2.42;;;;;;;7.18;100.00;101795.28;5051647;28;20091;-58
2023/05/16 03:31:33;;;;;;;15.82;2.63;;;;;;;7.09;100.00;101790.38;5051959;28;20032;-58
2023/05/16 03:34:01;;;;;;;13.57;2.22;;;;;;;7.07;100.00;101790.41;5052124;28;20056;-58
2023/05/16 03:36:30;;;;;;;8.93;1.70;;;;;;;7.06;100.00;101796.59;5051574;28;20828;-58
2023/05/16 03:38:58;;;;;;;7.72;1.75;;;;;;;7.08;100.00;101801.75;5051821;28;20522;-58
2023/05/16 03:41:28;;;;;;;11.65;2.08;;;;;;;7.04;100.00;101808.00;5050871;28;20056;-58
2023/05/16 03:43:56;;;;;;;14.00;2.42;;;;;;;6.98;100.00;101813.44;5051471;28;20047;-58
2023/05/16 03:46:24;;;;;;;10.25;1.90;;;;;;;7.01;100.00;101808.09;5049427;28;20477;-50
2023/05/16 03:48:53;;;;;;;12.07;2.15;;;;;;;7.01;100.00;101813.31;5051284;28;20045;-46
2023/05/16 03:51:21;;;;;;;11.93;1.60;;;;;;;7.06;100.00;101807.03;5052517;28;20041;-47
2023/05/16 03:53:49;;;;;;;10.35;1.88;;;;;;;7.01;100.00;101815.94;5048784;28;20056;-49
2023/05/16 03:56:17;;;;;;;14.02;1.67;;;;;;;7.00;100.00;101822.09;5049506;28;20037;-50
2023/05/16 03:58:46;;;;;;;11.38;1.90;;;;;;;7.09;100.00;101814.78;5052299;28;20084;-50
2023/05/16 04:01:15;;;;;;;11.95;2.13;;;;;;;7.11;100.00;101814.72;5052038;28;20041;-47
2023/05/16 04:03:43;;;;;;;11.45;2.03;;;;;;;7.12;100.00;101821.66;5052066;28;20041;-47
2023/05/16 04:06:11;;;;;;;11.10;2.55;;;;;;;7.15;100.00;101825.94;5052089;28;20045;-48
2023/05/16 04:08:40;;;;;;;11.43;2.03;;;;;;;7.14;100.00;101825.06;5033350;28;20056;-48
2023/05/16 04:11:08;;;;;;;12.18;2.00;;;;;;;7.15;100.00;101824.16;5030899;28;20160;-49
2023/05/16 04:13:36;;;;;;;12.20;2.10;;;;;;;7.14;100.00;101825.06;5048171;28;20073;-48
2023/05/16 04:16:06;;;;;;;10.68;2.40;;;;;;;7.16;100.00;101823.28;5048650;28;20083;-48
2023/05/16 04:18:34;;;;;;;16.45;2.13;;;;;;;7.20;100.00;101830.09;5052787;28;20049;-45
2023/05/16 04:21:03;;;;;;;11.65;2.20;;;;;;;7.24;100.00;101830.81;5051211;28;20514;-46
2023/05/16 04:23:31;;;;;;;10.35;2.03;;;;;;;7.26;100.00;101826.41;5052600;28;20080;-49
2023/05/16 04:26:00;;;;;;;12.80;2.30;;;;;;;7.30;100.00;101832.41;5052266;28;20053;-50
2023/05/16 04:28:29;;;;;;;9.10;1.77;;;;;;;7.33;100.00;101834.91;5052258;28;20076;-52
2023/05/16 04:30:57;;;;;;;8.02;1.67;;;;;;;7.38;100.00;101840.81;5051927;28;20045;-52
2023/05/16 04:33:26;;;;;;;12.60;1.98;;;;;;;7.43;100.00;101836.25;5034517;28;20433;-50
2023/05/16 04:35:56;;;;;;;13.25;2.40;;;;;;;7.48;100.00;101834.34;5052395;28;20048;-51
2023/05/16 04:38:25;;;;;;;12.48;1.73;;;;;;;7.50;100.00;101832.53;5053744;28;20110;-52
2023/05/16 04:40:56;;;;;;;12.13;2.20;;;;;;;7.55;100.00;101843.69;5052048;28;20496;-49
2023/05/16 04:43:24;;;;;;;11.07;1.92;;;;;;;7.61;100.00;101840.00;5052165;28;20492;-51
2023/05/16 04:45:52;;;;;;;11.48;2.30;;;;;;;7.60;100.00;101843.50;5051519;28;20049;-48
2023/05/16 04:48:20;;;;;;;10.88;2.25;;;;;;;7.55;100.00;101859.41;5052162;28;20048;-49
2023/05/16 04:50:51;;;;;;;9.80;1.85;;;;;;;7.59;100.00;101855.75;5050770;28;20064;-49
2023/05/16 04:53:19;;;;;;;9.65;2.10;;;;;;;7.59;100.00;101853.16;5054121;28;20041;-49
2023/05/16 04:55:47;;;;;;;11.07;2.05;;;;;;;7.66;100.00;101858.13;5036923;28;20045;-51
2023/05/16 04:58:15;;;;;;;9.63;2.15;;;;;;;7.68;100.00;101856.34;5054615;28;20056;-52
2023/05/16 05:00:43;;;;;;;9.10;2.15;;;;;;;7.71;100.00;101861.44;5051395;28;20072;-52
2023/05/16 05:03:12;;;;;;;12.73;2.00;;;;;;;7.75;100.00;101868.28;5052812;28;20041;-50
2023/05/16 05:05:40;;;;;;;9.77;2.25;;;;;;;7.81;100.00;101861.97;5052710;28;20068;-51
2023/05/16 05:08:09;;;;;;;13.25;2.33;;;;;;;7.76;100.00;101868.22;5033751;28;20056;-47
2023/05/16 05:10:38;;;;;;;13.15;2.35;;;;;;;7.77;100.00;101872.56;5051076;28;20045;-50
2023/05/16 05:13:06;;;;;;;10.02;2.17;;;;;;;7.86;100.00;101871.34;5051283;28;20384;-46
2023/05/16 05:15:34;;;;;;;13.80;2.45;;;;;;;7.96;100.00;101879.72;5050683;28;20098;-50
2023/05/16 05:18:03;;;;;;;10.48;2.17;;;;;;;7.99;100.00;101881.38;5051058;28;20049;-50
2023/05/16 05:20:31;;;;;;;13.07;2.40;;;;;;;8.00;100.00;101880.47;5050301;28;20048;-50
2023/05/16 05:22:59;;;;;;;10.30;2.10;;;;;;;8.07;100.00;101879.31;5051635;28;20049;-51
2023/05/16 05:25:29;;;;;;;13.65;2.67;;;;;;;8.18;100.00;101885.00;5049519;28;20511;-50
2023/05/16 05:27:57;;;;;;;9.98;2.30;;;;;;;8.25;100.00;101878.59;5052780;28;20045;-58
2023/05/16 05:30:25;;;;;;;11.10;1.95;;;;;;;8.35;100.00;101878.25;5035808;28;20462;-59
2023/05/16 05:32:53;;;;;;;11.00;2.00;;;;;;;8.35;100.00;101888.75;5054512;28;20052;-59
2023/05/16 05:35:21;;;;;;;12.15;2.58;;;;;;;8.37;100.00;101887.78;5054980;28;20044;-59
2023/05/16 05:37:50;;;;;;;11.52;1.80;;;;;;;8.37;100.00;101887.78;5053499;28;20036;-59
2023/05/16 05:40:18;;;;;;;11.80;2.17;;;;;;;8.40;100.00;101889.41;5036067;28;20045;-59
2023/05/16 05:42:47;;;;;;;12.73;1.85;;;;;;;8.49;100.00;101886.44;5054145;28;20068;-59
2023/05/16 05:45:16;;;;;;;12.45;2.65;;;;;;;8.61;100.00;101892.97;5051244;28;20083;-50
2023/05/16 05:47:44;;;;;;;14.63;2.90;;;;;;;8.71;100.00;101896.94;5052643;28;20500;-51
2023/05/16 05:50:13;;;;;;;10.63;1.80;;;;;;;8.79;100.00;101900.09;5053436;28;20053;-47
2023/05/16 05:52:41;;;;;;;11.00;2.30;;;;;;;8.84;100.00;101901.69;5050885;28;20033;-51
2023/05/16 05:55:10;;;;;;;7.55;2.08;;;;;;;8.86;100.00;101902.47;5050931;28;20057;-50
2023/05/16 05:57:40;;;;;;;10.27;1.85;;;;;;;8.83;100.00;101906.06;5052182;28;20059;-58
2023/05/16 06:00:11;;;;;;;9.85;1.70;;;;;;;8.91;100.00;101905.75;5053615;28;20044;-58
2023/05/16 06:02:40;;;;;;;7.75;1.60;;;;;;;8.92;100.00;101910.94;5053104;28;20060;-58
2023/05/16 06:05:09;;;;;;;8.18;1.63;;;;;;;8.94;100.00;101914.38;5052491;28;20048;-57
2023/05/16 06:07:37;;;;;;;10.38;2.17;;;;;;;8.96;100.00;101915.13;5053519;28;20045;-58
2023/05/16 06:10:07;;;;;;;13.57;2.97;;;;;;;8.93;100.00;101915.28;5034878;28;20048;-58
2023/05/16 06:12:35;;;;;;;14.15;2.20;;;;;;;8.98;100.00;101922.09;5053092;28;20037;-58
2023/05/16 06:15:04;;;;;;;10.57;1.90;;;;;;;8.89;100.00;101918.06;5053385;28;20500;-58
2023/05/16 06:17:33;;;;;;;9.43;1.88;;;;;;;8.94;100.00;101922.25;5054168;28;20048;-58
2023/05/16 06:20:02;;;;;;;12.95;2.47;;;;;;;8.93;100.00;101925.78;5053006;28;20519;-58
2023/05/16 06:22:31;;;;;;;7.93;1.90;;;;;;;8.95;100.00;101925.69;5053229;28;20559;-58
2023/05/16 06:24:59;;;;;;;11.00;1.80;;;;;;;9.01;100.00;101927.22;5053813;28;20438;-58
2023/05/16 06:27:27;;;;;;;11.15;2.15;;;;;;;9.12;100.00;101928.50;5035575;28;20056;-59
2023/05/16 06:29:55;;;;;;;10.45;2.33;;;;;;;9.19;100.00;101926.47;5052985;28;20045;-59
2023/05/16 06:32:24;;;;;;;13.32;2.65;;;;;;;9.22;100.00;101931.56;5053273;28;20120;-59
2023/05/16 06:34:53;;;;;;;10.02;1.92;;;;;;;9.28;100.00;101933.09;5052659;28;20049;-59
2023/05/16 06:37:22;;;;;;;12.70;1.77;;;;;;;9.37;100.00;101934.47;5053246;28;20065;-59
2023/05/16 06:39:50;;;;;;;9.13;1.95;;;;;;;9.42;100.00;101935.13;5052050;28;20049;-59
2023/05/16 06:42:19;;;;;;;9.82;2.60;;;;;;;9.42;100.00;101932.50;5052199;28;20072;-59
2023/05/16 06:44:47;;;;;;;11.30;2.20;;;;;;;9.51;100.00;101933.88;5052393;28;20500;-59
2023/05/16 06:47:16;;;;;;;13.88;1.80;;;;;;;9.57;100.00;101937.09;5053816;28;20128;-59
2023/05/16 06:49:44;;;;;;;12.13;2.33;;;;;;;9.61;100.00;101938.66;5052146;28;20053;-60
2023/05/16 06:52:13;;;;;;;10.93;1.80;;;;;;;9.60;100.00;101941.38;5052766;28;20565;-59
2023/05/16 06:54:41;;;;;;;12.27;1.98;;;;;;;9.68;100.00;101941.88;5052415;28;20064;-59
2023/05/16 06:57:09;;;;;;;9.13;1.80;;;;;;;9.77;100.00;101936.19;5052488;28;20059;-59
2023/05/16 06:59:38;;;;;;;9.38;2.40;;;;;;;9.89;100.00;101940.06;5053301;28;20049;-59
2023/05/16 07:02:06;;;;;;;10.55;1.95;;;;;;;9.94;100.00;101938.09;5052794;28;20047;-60
2023/05/16 07:04:36;;;;;;;10.13;1.92;;;;;;;10.04;100.00;101949.03;5051940;28;20524;-59
2023/05/16 07:07:06;;;;;;;8.65;1.70;;;;;;;10.18;100.00;101937.88;5052185;28;20404;-59
2023/05/16 07:09:36;;;;;;;8.13;1.92;;;;;;;10.17;100.00;101933.56;5051627;28;20064;-59
2023/05/16 07:12:05;;;;;;;9.13;1.73;;;;;;;10.27;100.00;101934.00;5052133;28;20055;-59
2023/05/16 07:14:36;;;;;;;11.53;2.00;;;;;;;10.47;100.00;101938.31;5051800;28;20049;-59
2023/05/16 07:17:04;;;;;;;13.48;1.95;;;;;;;10.64;100.00;101946.28;5052256;28;20508;-59
2023/05/16 07:19:33;;;;;;;11.65;1.80;;;;;;;10.79;100.00;101938.59;5051748;28;20120;-59
2023/05/16 07:22:01;;;;;;;12.98;1.98;;;;;;;10.93;100.00;101936.09;5050547;28;20127;-62
2023/05/16 07:24:29;;;;;;;13.18;1.92;;;;;;;11.14;100.00;101936.00;5050022;28;20462;-61
2023/05/16 07:26:59;;;;;;;8.27;1.55;;;;;;;11.32;100.00;101939.47;5051289;28;20055;-61
2023/05/16 07:29:29;;;;;;;7.07;1.42;;;;;;;11.49;100.00;101934.19;5052262;28;20044;-60
2023/05/16 07:31:57;;;;;;;9.23;1.45;;;;;;;11.70;100.00;101944.53;5050582;28;20543;-61
2023/05/16 07:34:25;;;;;;;9.77;1.85;;;;;;;12.05;100.00;101923.38;5049236;28;20118;-60
2023/05/16 07:36:53;;;;;;;7.93;1.65;;;;;;;12.32;100.00;101930.72;5051998;28;20880;-61
2023/05/16 07:39:21;;;;;;;7.68;1.30;;;;;;;12.59;100.00;101925.69;5050556;28;20049;-61
2023/05/16 07:41:49;;;;;;;10.23;1.83;;;;;;;12.64;100.00;101922.81;5050010;28;20037;-61
2023/05/16 07:44:19;;;;;;;10.07;1.80;;;;;;;12.75;100.00;101938.00;5049958;28;20528;-61
2023/05/16 07:46:47;;;;;;;6.15;1.70;;;;;;;12.88;100.00;101933.72;5050224;28;20080;-62
2023/05/16 07:49:15;;;;;;;9.32;1.10;;;;;;;12.93;100.00;101942.25;5030514;28;20057;-50
2023/05/16 07:51:44;;;;;;;7.65;1.20;;;;;;;12.93;100.00;101942.25;5033401;28;20508;-52
2023/05/16 07:54:12;;;;;;;5.50;0.73;;;;;;;13.01;100.00;101936.53;5053143;28;20045;-49
2023/05/16 07:56:40;;;;;;;4.57;0.90;;;;;;;13.31;100.00;101931.22;5053168;28;20052;-50
2023/05/16 07:59:08;;;;;;;5.03;1.08;;;;;;;13.55;100.00;101933.34;5052474;28;20518;-52
2023/05/16 08:01:38;;;;;;;6.50;1.13;;;;;;;13.57;100.00;101933.28;5052688;28;20049;-53
2023/05/16 08:04:06;;;;;;;5.65;1.40;;;;;;;13.81;100.00;101942.34;5053602;28;20099;-53
2023/05/16 08:06:35;;;;;;;4.35;1.15;;;;;;;13.99;100.00;101932.44;5054826;28;20123;-53
2023/05/16 08:09:04;;;;;;;7.03;1.25;;;;;;;14.16;100.00;101933.16;5052567;28;20090;-54
2023/05/16 08:11:32;;;;;;;5.47;1.17;;;;;;;13.79;100.00;101932.81;5052756;28;20044;-53
2023/05/16 08:14:00;;;;;;;4.47;1.00;;;;;;;13.57;100.00;101944.69;5052175;28;20057;-53
2023/05/16 08:16:32;;;;;;;7.28;1.05;;;;;;;13.45;100.00;101942.78;5036939;28;20053;-48
2023/05/16 08:19:02;;;;;;;6.18;0.98;;;;;;;13.35;100.00;101940.69;5052482;28;20057;-52
2023/05/16 08:21:30;;;;;;;7.13;1.13;;;;;;;13.38;100.00;101944.13;5051234;28;20067;-53
2023/05/16 08:23:59;;;;;;;6.68;0.90;;;;;;;13.66;100.00;101948.56;5051841;28;20112;-53
2023/05/16 08:26:27;;;;;;;8.05;1.05;;;;;;;13.78;100.00;101945.16;5052012;28;20408;-53
2023/05/16 08:28:55;;;;;;;6.13;0.95;;;;;;;13.80;100.00;101947.75;5051676;28;20048;-52
2023/05/16 08:31:23;;;;;;;5.65;1.17;;;;;;;13.76;100.00;101943.59;5051905;28;20562;-51
2023/05/16 08:33:51;;;;;;;3.70;0.85;;;;;;;13.77;100.00;101951.44;5052613;28;20535;-52
2023/05/16 08:36:21;;;;;;;6.35;0.90;;;;;;;13.64;100.00;101947.81;5050803;28;20045;-50
2023/05/16 08:38:52;;;;;;;7.85;1.10;;;;;;;13.66;100.00;101956.50;5053627;28;20049;-51
2023/05/16 08:41:20;;;;;;;4.57;0.85;;;;;;;13.50;100.00;101952.16;5052124;28;20060;-52
2023/05/16 08:43:49;;;;;;;4.78;0.90;;;;;;;13.53;100.00;101953.75;5052772;28;20053;-51
2023/05/16 08:46:22;;;;;;;3.42;0.80;;;;;;;13.39;100.00;101951.94;5059652;28;20067;-53
2023/05/16 08:48:54;;;;;;;3.80;0.52;;;;;;;13.42;100.00;101953.56;5060377;28;20095;-49
2023/05/16 08:51:25;;;;;;;4.90;0.80;;;;;;;13.39;100.00;101945.78;5070123;28;20091;-50
2023/05/16 08:54:00;;;;;;;2.53;0.55;;;;;;;13.68;100.00;101939.59;5064462;28;20058;-51
2023/05/16 08:56:28;;;;;;;3.28;0.70;;;;;;;13.98;100.00;101945.75;5059161;28;20045;-52
2023/05/16 08:58:57;;;;;;;5.07;0.98;;;;;;;14.33;99.20;101945.34;5058368;28;20052;-53
2023/05/16 09:01:25;;;;;;;5.00;0.68;;;;;;;14.62;91.53;101935.50;5064200;28;20725;-53
2023/05/16 09:03:55;;;;;;;4.15;0.93;;;;;;;15.01;87.20;101938.31;5055158;28;20557;-53
2023/05/16 09:06:25;;;;;;;3.72;0.77;;;;;;;15.25;77.80;101933.16;5058927;28;20087;-51
2023/05/16 09:08:53;;;;;;;4.78;0.90;;;;;;;15.56;80.72;101928.41;5063217;28;20075;-50
2023/05/16 09:11:21;;;;;;;3.78;0.70;;;;;;;15.75;78.64;101935.94;5066474;28;20102;-61
2023/05/16 09:13:52;;;;;;;5.18;1.00;;;;;;;15.93;86.87;101940.94;5071562;28;20040;-60
2023/05/16 09:16:21;;;;;;;2.15;0.70;;;;;;;16.04;85.17;101941.03;5051164;28;20052;-53
2023/05/16 09:18:55;;;;;;;5.10;0.90;;;;;;;16.06;81.17;101928.50;5061529;28;20044;-61
2023/05/16 09:21:28;;;;;;;3.65;0.90;;;;;;;15.89;77.17;101932.34;5044816;28;20049;-52
2023/05/16 09:23:56;;;;;;;5.38;1.05;;;;;;;15.61;72.05;101933.38;5056223;28;20132;-52
2023/05/16 09:26:25;;;;;;;6.07;0.93;;;;;;;15.55;71.12;101939.97;5058208;28;20060;-62
2023/05/16 09:28:55;;;;;;;7.43;1.08;;;;;;;15.48;75.31;101951.97;5059734;28;20045;-53
2023/05/16 09:31:25;;;;;;;6.63;1.42;;;;;;;15.09;74.19;101956.34;5048504;28;20044;-61
2023/05/16 09:33:53;;;;;;;5.55;1.17;;;;;;;15.10;74.31;101955.41;5071021;28;20556;-61
2023/05/16 09:36:27;;;;;;;6.00;1.02;;;;;;;15.09;73.33;101953.69;5061583;28;20797;-53
2023/05/16 09:38:55;;;;;;;4.70;0.70;;;;;;;15.10;75.65;101955.41;5068240;28;20051;-61
2023/05/16 09:41:24;;;;;;;4.78;0.80;;;;;;;14.88;76.08;101954.16;5061062;28;20044;-61
2023/05/16 09:43:52;;;;;;;1.55;0.60;;;;;;;15.05;77.83;101958.34;5057757;28;20048;-53
2023/05/16 09:46:26;;;;;;;3.03;0.75;;;;;;;15.38;80.60;101957.03;5058622;28;20055;-52
2023/05/16 09:48:55;;;;;;;4.03;0.63;;;;;;;15.68;76.42;101951.44;5062883;28;20059;-52
2023/05/16 09:51:23;;;;;;;4.00;0.80;;;;;;;15.80;78.44;101959.50;5069186;28;20515;-52
2023/05/16 09:53:53;;;;;;;5.40;1.00;;;;;;;15.76;74.61;101950.91;5069597;28;20048;-52
2023/05/16 09:56:21;;;;;;;4.57;0.85;;;;;;;16.14;74.17;101949.19;5061655;28;20055;-52
2023/05/16 09:58:52;;;;;;;4.18;0.82;;;;;;;16.56;72.82;101945.25;5058445;28;20055;-52
2023/05/16 10:01:20;;;;;;;4.53;1.23;;;;;;;16.86;69.21;101940.41;5061293;28;20067;-53
2023/05/16 10:03:49;;;;;;;4.25;0.80;;;;;;;17.10;72.00;101936.91;5067856;28;20404;-51
2023/05/16 10:06:18;;;;;;;4.05;0.90;;;;;;;17.32;67.21;101930.81;5057966;28;20048;-52
2023/05/16 10:08:47;;;;;;;4.93;0.82;;;;;;;17.39;69.66;101935.53;5060586;28;20048;-51
2023/05/16 10:11:18;;;;;;;3.47;0.93;;;;;;;17.27;71.48;101939.13;5061502;28;20036;-52
2023/05/16 10:13:51;;;;;;;4.70;1.08;;;;;;;17.06;67.63;101945.09;5058111;28;20036;-53
2023/05/16 10:16:23;;;;;;;5.68;1.70;;;;;;;16.71;71.48;101951.22;5057221;28;20048;-51
2023/05/16 10:18:52;;;;;;;5.15;1.10;;;;;;;16.42;72.80;101950.69;5061338;28;20045;-53
2023/05/16 10:21:23;;;;;;;7.47;1.20;;;;;;;16.45;73.26;101949.63;5057799;28;20147;-53
2023/05/16 10:23:58;;;;;;;5.70;1.52;;;;;;;16.30;76.39;101957.72;5060807;28;20053;-51
2023/05/16 10:26:29;;;;;;;5.50;1.10;;;;;;;16.52;75.38;101950.88;5058315;28;20049;-53
2023/05/16 10:28:58;;;;;;;4.35;1.02;;;;;;;16.76;76.72;101961.50;5060004;28;20454;-62
2023/05/16 10:31:26;;;;;;;5.05;1.10;;;;;;;17.12;75.92;101943.78;5058990;28;20661;-61
2023/05/16 10:33:56;;;;;;;3.72;1.00;;;;;;;17.01;69.32;101947.25;5057988;28;20673;-62
2023/05/16 10:36:24;;;;;;;5.47;1.00;;;;;;;17.31;73.14;101937.94;5057176;28;20047;-62
2023/05/16 10:38:53;;;;;;;4.90;0.90;;;;;;;17.71;69.80;101940.16;5062341;28;20048;-62
2023/05/16 10:41:22;;;;;;;4.22;1.05;;;;;;;17.79;67.55;101930.72;5060644;28;20068;-61
2023/05/16 10:43:58;;;;;;;5.35;1.20;;;;;;;17.31;65.41;101929.13;5058809;28;20054;-62
2023/05/16 10:46:27;;;;;;;6.25;0.98;;;;;;;17.08;65.38;101937.00;5058365;28;20043;-61
2023/05/16 10:48:56;;;;;;;5.03;1.20;;;;;;;16.98;65.75;101930.72;5057723;28;20385;-62
2023/05/16 10:51:35;;;;;;;;;;;;;;;17.42;68.00;101934.44;5055830;28;20495;-61
2023/05/16 10:54:09;;;;;;;6.15;1.20;;;;;;;17.88;66.42;101932.69;5057304;28;19925;-62
2023/05/16 10:56:38;;;;;;;6.32;1.17;;;;;;;17.90;63.41;101936.03;5062623;28;20055;-62
2023/05/16 10:59:22;;;;;;;6.32;0.90;;;;;;;18.45;65.47;101924.63;5056108;28;20048;-62
2023/05/16 11:01:52;;;;;;;7.05;1.13;;;;;;;18.35;59.92;101936.03;5058170;28;20052;-62
2023/05/16 11:04:21;;;;;;;7.03;1.00;;;;;;;18.10;56.21;101929.16;5060328;28;20068;-62
2023/05/16 11:06:53;;;;;;;5.90;0.98;;;;;;;17.91;54.83;101929.75;5061417;28;20044;-62
2023/05/16 11:09:25;;;;;;;6.57;1.13;;;;;;;17.50;54.40;101926.72;5059397;28;20412;-61
2023/05/16 11:12:01;;;;;;;6.00;1.02;;;;;;;17.30;54.40;101936.25;5059959;28;20568;-64
2023/05/16 11:14:42;;;;;;;4.05;0.73;;;;;;;17.23;55.76;101932.34;5062053;28;20169;-63
2023/05/16 11:17:12;;;;;;;5.05;1.10;;;;;;;17.22;59.32;101933.34;5059534;28;20098;-62
2023/05/16 11:19:43;;;;;;;4.45;0.95;;;;;;;17.72;59.37;101931.22;5059840;28;20071;-63
2023/05/16 11:22:16;;;;;;;6.35;1.50;;;;;;;17.90;60.08;101934.25;5056821;28;20040;-52
2023/05/16 11:24:53;;;;;;;5.15;1.05;;;;;;;18.27;57.91;101930.50;5058741;28;20044;-54
2023/05/16 11:27:23;;;;;;;3.67;1.00;;;;;;;18.58;50.37;101933.28;5062300;28;20404;-63
2023/05/16 11:29:55;;;;;;;3.80;0.85;;;;;;;18.50;48.00;101925.97;5057917;28;20048;-64